Time;durP1;ratioP1;P1;durP2;ratioP2;P2;SDS_P1;SDS_P2;PMS_P1;PMS_P2;Temp;Humidity;BMP_temperature;BMP_pressure;BME280_temperature;BME280_humidity;BME280_pressure;Samples;Min_cycle;Max_cycle;Signal;HPM_P1;HPM_P2
2023/03/27 00:01:10;;;;;;;3.70;0.63;;;3.60;99.90;;;;;;4770014;30;20112;-86
2023/03/27 00:03:36;;;;;;;6.65;1.08;;;4.30;99.90;;;;;;4770552;30;20409;-85
2023/03/27 00:06:06;;;;;;;2.17;0.73;;;3.90;99.90;;;;;;4775959;30;20131;-86
2023/03/27 00:08:32;;;;;;;4.88;0.47;;;3.80;99.90;;;;;;4769725;30;20047;-85
2023/03/27 00:11:00;;;;;;;4.43;0.70;;;4.40;99.90;;;;;;4763489;30;20043;-86
2023/03/27 00:13:26;;;;;;;1.67;0.60;;;4.10;99.90;;;;;;4774184;30;20406;-86
2023/03/27 00:15:56;;;;;;;4.82;0.50;;;3.70;99.90;;;;;;4769239;30;20050;-86
2023/03/27 00:18:23;;;;;;;10.18;0.60;;;3.70;99.90;;;;;;4769903;30;20526;-85
2023/03/27 00:20:50;;;;;;;6.00;0.73;;;4.50;99.90;;;;;;4769705;30;20565;-86
2023/03/27 00:23:16;;;;;;;1.55;0.32;;;4.00;99.90;;;;;;4769802;30;20431;-86
2023/03/27 00:25:42;;;;;;;5.10;0.68;;;4.40;99.90;;;;;;4767688;30;20043;-86
2023/03/27 00:28:07;;;;;;;4.00;0.50;;;4.70;99.90;;;;;;4766949;30;20088;-86
2023/03/27 00:30:34;;;;;;;5.38;0.57;;;3.80;99.90;;;;;;4770036;30;20126;-87
2023/03/27 00:33:00;;;;;;;3.85;0.50;;;4.90;99.90;;;;;;4759778;30;20086;-86
2023/03/27 00:35:28;;;;;;;2.88;0.60;;;4.80;99.90;;;;;;4764547;30;20497;-87
2023/03/27 00:37:54;;;;;;;0.43;0.30;;;5.40;99.90;;;;;;4771964;30;20418;-86
2023/03/27 00:40:20;;;;;;;5.57;0.70;;;4.60;99.90;;;;;;4756918;30;20455;-87
2023/03/27 00:42:49;;;;;;;2.97;0.40;;;3.00;99.90;;;;;;4774070;30;20048;-87
2023/03/27 00:45:17;;;;;;;4.07;0.30;;;4.50;99.90;;;;;;4767245;30;20057;-87
2023/03/27 00:47:44;;;;;;;4.32;0.50;;;4.00;99.90;;;;;;4761136;30;20494;-86
2023/03/27 00:50:16;;;;;;;2.83;0.70;;;5.50;99.90;;;;;;4766642;30;20079;-86
2023/03/27 00:52:46;;;;;;;3.70;0.40;;;3.70;99.90;;;;;;4770111;30;20091;-87
2023/03/27 00:55:16;;;;;;;3.83;0.40;;;5.30;99.90;;;;;;4774791;30;20503;-86
2023/03/27 00:57:44;;;;;;;3.38;0.47;;;5.40;99.90;;;;;;4771764;30;20113;-86
2023/03/27 01:00:13;;;;;;;4.63;1.55;;;3.70;99.90;;;;;;4772517;30;20418;-85
2023/03/27 01:02:41;;;;;;;2.58;0.32;;;4.00;99.90;;;;;;4763546;30;20055;-86
2023/03/27 01:05:08;;;;;;;4.65;0.30;;;4.70;99.90;;;;;;4768935;30;20546;-85
2023/03/27 01:07:35;;;;;;;3.03;0.60;;;4.00;99.90;;;;;;4765968;30;20044;-86
2023/03/27 01:10:05;;;;;;;5.72;0.55;;;4.00;99.90;;;;;;4772860;30;20113;-86
2023/03/27 01:12:43;;;;;;;2.80;0.40;;;3.90;99.90;;;;;;4772991;30;20402;-86
2023/03/27 01:15:24;;;;;;;5.95;0.40;;;3.80;99.90;;;;;;4772699;30;20090;-87
2023/03/27 01:17:58;;;;;;;5.00;0.60;;;3.90;99.90;;;;;;4751007;30;20056;-85
2023/03/27 01:20:48;;;;;;;4.38;0.73;;;3.90;99.90;;;;;;4772786;30;20097;-85
2023/03/27 01:23:33;;;;;;;3.05;0.40;;;3.80;99.90;;;;;;4772835;30;20438;-85
2023/03/27 01:26:19;;;;;;;1.73;0.40;;;3.90;99.90;;;;;;4758529;30;20067;-89
2023/03/27 01:29:14;;;;;;;4.22;0.63;;;3.80;99.90;;;;;;4772002;30;20071;-85
2023/03/27 01:31:40;;;;;;;5.78;0.60;;;3.80;99.90;;;;;;4723906;30;20143;-86
2023/03/27 01:34:32;;;;;;;2.38;0.50;;;4.80;99.90;;;;;;4708146;30;20448;-86
2023/03/27 01:37:10;;;;;;;1.95;0.38;;;3.80;99.90;;;;;;4715988;30;20057;-87
2023/03/27 01:40:08;;;;;;;6.00;0.50;;;3.80;99.90;;;;;;4711071;30;20059;-86
2023/03/27 01:42:39;;;;;;;3.25;0.40;;;3.80;99.90;;;;;;4713678;30;20425;-85
2023/03/27 01:45:12;;;;;;;4.00;0.40;;;3.60;99.90;;;;;;4705925;30;20562;-86
2023/03/27 01:48:09;;;;;;;8.38;0.70;;;3.60;99.90;;;;;;4701801;30;20065;-86
2023/03/27 01:50:40;;;;;;;2.38;0.50;;;3.70;99.90;;;;;;4714738;30;20080;-85
2023/03/27 01:53:14;;;;;;;2.75;0.65;;;4.00;99.90;;;;;;4697623;30;20074;-87
2023/03/27 01:55:45;;;;;;;3.42;0.55;;;3.70;99.90;;;;;;4714031;30;20061;-85
2023/03/27 01:58:22;;;;;;;3.92;0.38;;;3.50;99.90;;;;;;4701598;30;20060;-84
2023/03/27 02:00:53;;;;;;;4.82;0.38;;;3.40;99.90;;;;;;4715067;30;20117;-85
2023/03/27 02:03:30;;;;;;;11.10;0.73;;;3.30;99.90;;;;;;4714934;30;20053;-85
2023/03/27 02:06:03;;;;;;;4.40;0.60;;;3.50;99.90;;;;;;4715119;30;20105;-85
2023/03/27 02:08:47;;;;;;;3.28;0.40;;;4.40;99.90;;;;;;4724446;30;20135;-85
2023/03/27 02:11:14;;;;;;;4.45;0.70;;;3.90;99.90;;;;;;4714305;30;20045;-85
2023/03/27 02:13:41;;;;;;;2.65;0.60;;;4.60;99.90;;;;;;4732314;30;20056;-85
2023/03/27 02:16:13;;;;;;;4.00;0.47;;;3.60;99.90;;;;;;4711536;30;20061;-85
2023/03/27 02:18:46;;;;;;;4.93;1.05;;;3.50;99.90;;;;;;4739068;30;20067;-85
2023/03/27 02:21:13;;;;;;;2.05;0.40;;;3.40;99.90;;;;;;4764919;30;20044;-85
2023/03/27 02:23:39;;;;;;;2.65;0.50;;;3.70;99.90;;;;;;4771697;30;20554;-85
2023/03/27 02:26:05;;;;;;;2.70;0.50;;;4.40;99.90;;;;;;4778335;30;20486;-85
2023/03/27 02:28:39;;;;;;;2.65;0.45;;;3.30;99.90;;;;;;4766748;30;20051;-85
2023/03/27 02:31:12;;;;;;;2.40;0.45;;;3.30;99.90;;;;;;4772263;30;20156;-85
2023/03/27 02:33:41;;;;;;;14.65;0.80;;;3.20;99.90;;;;;;4771960;30;20148;-86
2023/03/27 02:36:31;;;;;;;3.40;0.30;;;2.10;99.90;;;;;;4769629;30;20059;-86
2023/03/27 02:39:21;;;;;;;4.75;0.60;;;3.30;99.90;;;;;;4778014;30;20051;-85
2023/03/27 02:42:10;;;;;;;2.90;0.63;;;3.30;99.90;;;;;;4755347;30;20523;-85
2023/03/27 02:45:02;;;;;;;4.90;0.60;;;3.30;99.90;;;;;;4760623;30;20062;-86
2023/03/27 02:47:46;;;;;;;3.70;0.50;;;4.00;99.90;;;;;;4757541;30;20116;-86
2023/03/27 02:50:18;;;;;;;6.60;0.70;;;3.40;99.90;;;;;;4761923;30;20055;-86
2023/03/27 02:52:58;;;;;;;2.72;0.50;;;4.40;99.90;;;;;;4771702;30;20052;-85
2023/03/27 02:55:32;;;;;;;3.63;0.70;;;4.30;99.90;;;;;;4768968;30;20447;-86
2023/03/27 02:58:23;;;;;;;4.63;0.40;;;3.40;99.90;;;;;;4770902;30;20515;-85
2023/03/27 03:00:50;;;;;;;2.28;0.50;;;3.30;99.90;;;;;;4766482;30;20078;-86
2023/03/27 03:03:42;;;;;;;5.93;0.60;;;4.00;99.90;;;;;;4772107;30;20044;-84
2023/03/27 03:06:09;;;;;;;1.80;0.57;;;4.50;99.90;;;;;;4683668;30;20066;-85
2023/03/27 03:08:37;;;;;;;1.88;0.70;;;3.60;99.90;;;;;;4690085;30;20141;-86
2023/03/27 03:11:06;;;;;;;7.35;0.73;;;4.00;99.90;;;;;;4684574;30;20057;-86
2023/03/27 03:13:31;;;;;;;6.22;0.60;;;3.20;99.90;;;;;;4673475;30;20065;-85
2023/03/27 03:15:57;;;;;;;6.75;0.60;;;3.20;99.90;;;;;;4674558;30;20050;-85
2023/03/27 03:18:24;;;;;;;3.53;0.70;;;3.90;99.90;;;;;;4674676;30;20105;-86
2023/03/27 03:20:53;;;;;;;3.63;0.55;;;4.50;99.90;;;;;;4692433;30;20114;-86
2023/03/27 03:23:22;;;;;;;7.90;0.68;;;2.80;99.90;;;;;;4687488;30;20054;-85
2023/03/27 03:25:51;;;;;;;6.22;0.50;;;3.30;99.90;;;;;;4686632;30;20050;-85
2023/03/27 03:28:17;;;;;;;7.30;0.70;;;4.20;99.90;;;;;;4687217;30;20049;-86
2023/03/27 03:30:49;;;;;;;6.25;0.60;;;3.20;99.90;;;;;;4687520;30;20069;-85
2023/03/27 03:33:16;;;;;;;6.10;0.60;;;4.70;99.90;;;;;;4673684;30;20050;-86
2023/03/27 03:35:45;;;;;;;5.20;0.80;;;3.50;99.90;;;;;;4666347;30;20552;-86
2023/03/27 03:38:11;;;;;;;0.82;0.43;;;4.00;99.90;;;;;;4684443;30;20062;-86
2023/03/27 03:40:37;;;;;;;4.22;0.50;;;2.80;99.90;;;;;;4668836;30;20125;-86
2023/03/27 03:43:02;;;;;;;3.15;0.40;;;1.70;99.90;;;;;;4734977;30;20063;-86
2023/03/27 03:45:28;;;;;;;3.78;0.52;;;4.10;99.90;;;;;;4772185;30;20048;-86
2023/03/27 03:47:54;;;;;;;4.63;0.70;;;3.80;99.90;;;;;;4770307;30;20399;-84
2023/03/27 03:50:19;;;;;;;4.32;0.50;;;3.50;99.90;;;;;;4767917;30;20094;-84
2023/03/27 03:52:46;;;;;;;7.28;1.08;;;3.00;99.90;;;;;;4776642;30;20051;-84
2023/03/27 03:55:11;;;;;;;9.73;1.10;;;3.70;99.90;;;;;;4759791;30;20501;-85
2023/03/27 03:57:37;;;;;;;7.00;0.80;;;2.90;99.90;;;;;;4770914;30;20160;-84
2023/03/27 04:00:07;;;;;;;5.15;0.65;;;2.90;99.90;;;;;;4776767;30;20181;-83
2023/03/27 04:02:33;;;;;;;6.72;0.98;;;2.90;99.90;;;;;;4769837;30;20051;-83
2023/03/27 04:05:00;;;;;;;6.47;0.80;;;3.70;99.90;;;;;;4753821;30;20057;-84
2023/03/27 04:07:34;;;;;;;5.35;0.90;;;3.60;99.90;;;;;;4760430;30;20047;-84
2023/03/27 04:10:00;;;;;;;1.75;0.60;;;3.60;99.90;;;;;;4770105;30;20406;-84
2023/03/27 04:12:26;;;;;;;5.20;0.93;;;3.80;99.90;;;;;;4769248;30;20541;-84
2023/03/27 04:14:55;;;;;;;10.35;1.08;;;3.00;99.90;;;;;;4756844;30;20451;-84
2023/03/27 04:17:22;;;;;;;2.85;0.88;;;4.00;99.90;;;;;;4774147;30;20126;-84
2023/03/27 04:19:48;;;;;;;6.85;0.65;;;3.50;99.90;;;;;;4769268;30;20055;-85
2023/03/27 04:22:17;;;;;;;6.63;1.05;;;2.60;99.90;;;;;;4766037;30;20051;-84
2023/03/27 04:24:43;;;;;;;5.60;0.70;;;3.20;99.90;;;;;;4771915;30;20066;-84
2023/03/27 04:27:12;;;;;;;3.35;0.60;;;3.00;99.90;;;;;;4776981;30;20055;-85
2023/03/27 04:29:42;;;;;;;5.57;0.50;;;3.60;99.90;;;;;;4768865;30;20108;-84
2023/03/27 04:32:11;;;;;;;5.20;0.45;;;3.80;99.90;;;;;;4769039;30;20113;-85
2023/03/27 04:34:39;;;;;;;2.83;0.43;;;4.40;99.90;;;;;;4764330;30;20051;-85
2023/03/27 04:37:05;;;;;;;6.95;1.05;;;4.50;99.90;;;;;;4757634;30;20047;-85
2023/03/27 04:39:36;;;;;;;4.53;0.40;;;3.80;99.90;;;;;;4772372;30;20517;-84
2023/03/27 04:42:03;;;;;;;3.17;0.32;;;4.60;99.90;;;;;;4776389;30;20055;-84
2023/03/27 04:44:28;;;;;;;1.45;0.28;;;3.90;99.90;;;;;;4769711;30;20057;-84
2023/03/27 04:46:54;;;;;;;1.77;0.30;;;4.00;99.90;;;;;;4769972;30;20669;-84
2023/03/27 04:49:20;;;;;;;3.40;0.20;;;3.60;99.90;;;;;;4765286;30;20409;-84
2023/03/27 04:51:45;;;;;;;5.10;0.35;;;4.00;99.90;;;;;;4768420;30;20052;-84
2023/03/27 04:54:12;;;;;;;1.75;0.28;;;3.00;99.90;;;;;;4770091;30;20491;-84
2023/03/27 04:56:39;;;;;;;5.55;0.38;;;2.80;99.90;;;;;;4776713;30;20047;-84
2023/03/27 04:59:05;;;;;;;3.83;0.88;;;2.90;99.90;;;;;;4762058;30;20099;-84
2023/03/27 05:01:31;;;;;;;2.65;0.45;;;2.80;99.90;;;;;;4769559;30;20109;-85
2023/03/27 05:03:57;;;;;;;0.90;0.40;;;3.90;99.90;;;;;;4770154;30;20104;-84
2023/03/27 05:06:22;;;;;;;3.60;0.60;;;3.30;99.90;;;;;;4769303;30;20052;-85
2023/03/27 05:08:49;;;;;;;0.63;0.20;;;3.20;99.90;;;;;;4769639;30;20059;-84
2023/03/27 05:11:15;;;;;;;1.92;0.30;;;2.40;99.90;;;;;;4767460;30;20045;-84
2023/03/27 05:13:41;;;;;;;2.45;0.50;;;2.90;99.90;;;;;;4769718;30;20051;-84
2023/03/27 05:16:08;;;;;;;0.98;0.30;;;2.90;99.90;;;;;;4775928;30;20174;-84
2023/03/27 05:18:37;;;;;;;2.95;0.30;;;2.90;99.90;;;;;;4769023;30;20558;-84
2023/03/27 05:21:03;;;;;;;1.90;0.30;;;2.80;99.90;;;;;;4766991;30;20066;-84
2023/03/27 05:23:30;;;;;;;1.02;0.28;;;2.80;99.90;;;;;;4759682;30;20056;-84
2023/03/27 05:25:56;;;;;;;3.83;0.32;;;4.20;99.90;;;;;;4761696;30;20051;-85
2023/03/27 05:28:22;;;;;;;2.83;0.30;;;2.70;99.90;;;;;;4769035;30;20051;-84
2023/03/27 05:30:48;;;;;;;2.17;0.40;;;2.20;99.90;;;;;;4767080;30;20127;-85
2023/03/27 05:33:15;;;;;;;4.70;0.40;;;2.60;99.90;;;;;;4769664;30;20530;-85
2023/03/27 05:35:44;;;;;;;1.63;0.30;;;4.10;99.90;;;;;;4769170;30;20056;-84
2023/03/27 05:38:10;;;;;;;2.00;0.40;;;4.00;99.90;;;;;;4766629;30;20063;-83
2023/03/27 05:40:38;;;;;;;7.20;0.52;;;3.70;99.90;;;;;;4768935;30;20055;-84
2023/03/27 05:43:04;;;;;;;0.95;0.20;;;3.80;99.90;;;;;;4769491;30;20055;-84
2023/03/27 05:45:31;;;;;;;2.20;0.35;;;2.80;99.90;;;;;;4766472;30;20052;-84
2023/03/27 05:47:58;;;;;;;3.17;0.30;;;2.70;99.90;;;;;;4774100;30;20052;-84
2023/03/27 05:50:33;;;;;;;1.90;0.20;;;2.90;99.90;;;;;;4771927;30;20052;-84
2023/03/27 05:53:03;;;;;;;2.90;0.30;;;2.90;99.90;;;;;;4769008;30;20051;-84
2023/03/27 05:55:30;;;;;;;5.68;0.70;;;3.80;99.90;;;;;;4771987;30;20060;-86
2023/03/27 05:57:55;;;;;;;2.70;0.40;;;1.90;99.90;;;;;;4772264;30;20056;-88
2023/03/27 06:00:24;;;;;;;3.75;0.40;;;2.90;99.90;;;;;;4766009;30;20055;-83
2023/03/27 06:02:53;;;;;;;2.08;0.40;;;3.50;99.90;;;;;;4773991;30;20112;-87
2023/03/27 06:05:20;;;;;;;5.10;0.47;;;2.10;99.90;;;;;;4773897;30;20046;-87
2023/03/27 06:07:46;;;;;;;3.83;0.70;;;4.40;99.90;;;;;;4772080;30;20044;-85
2023/03/27 06:10:19;;;;;;;2.10;0.30;;;4.00;99.90;;;;;;4771668;30;20130;-86
2023/03/27 06:12:46;;;;;;;8.50;0.50;;;3.20;99.90;;;;;;4770933;30;20055;-84
2023/03/27 06:15:14;;;;;;;4.72;0.50;;;4.00;99.90;;;;;;4769222;30;20047;-83
2023/03/27 06:17:41;;;;;;;2.58;0.40;;;4.30;99.90;;;;;;4755382;30;20047;-85
2023/03/27 06:20:13;;;;;;;6.90;0.57;;;4.50;99.90;;;;;;4764308;30;20056;-86
2023/03/27 06:22:51;;;;;;;4.90;1.20;;;3.40;99.90;;;;;;4773945;30;20131;-86
2023/03/27 06:25:18;;;;;;;5.57;0.88;;;4.00;99.90;;;;;;4769327;30;20126;-85
2023/03/27 06:27:45;;;;;;;5.10;0.55;;;4.40;99.90;;;;;;4771696;30;20068;-83
2023/03/27 06:30:13;;;;;;;4.85;0.98;;;3.90;99.90;;;;;;4772102;30;20131;-84
2023/03/27 06:33:07;;;;;;;16.92;1.60;;;3.80;99.90;;;;;;4777066;30;20055;-84
2023/03/27 06:35:33;;;;;;;5.93;0.40;;;3.90;99.90;;;;;;4771730;30;20051;-84
2023/03/27 06:38:01;;;;;;;7.82;0.95;;;4.10;99.90;;;;;;4775055;30;20410;-83
2023/03/27 06:40:28;;;;;;;5.63;1.10;;;4.10;99.90;;;;;;4770112;30;20059;-85
2023/03/27 06:43:02;;;;;;;3.45;0.63;;;3.90;99.90;;;;;;4755248;30;20452;-83
2023/03/27 06:45:31;;;;;;;8.90;0.90;;;4.50;99.90;;;;;;4778500;30;20494;-84
2023/03/27 06:48:02;;;;;;;4.28;0.60;;;4.40;99.90;;;;;;4774310;30;20044;-83
2023/03/27 06:50:29;;;;;;;4.72;0.40;;;4.00;99.90;;;;;;4771074;30;20044;-85
2023/03/27 06:52:55;;;;;;;8.93;0.50;;;4.10;99.90;;;;;;4774988;30;20050;-84
2023/03/27 06:55:22;;;;;;;5.93;0.52;;;5.60;99.90;;;;;;4773261;30;20044;-88
2023/03/27 06:57:51;;;;;;;6.78;0.82;;;5.40;99.90;;;;;;4766582;30;20126;-85
2023/03/27 07:00:21;;;;;;;3.38;0.85;;;4.60;99.90;;;;;;4774577;30;20052;-84
2023/03/27 07:02:48;;;;;;;2.88;0.63;;;4.90;99.90;;;;;;4770797;30;20131;-82
2023/03/27 07:05:14;;;;;;;6.15;0.82;;;5.00;99.90;;;;;;4775668;30;20191;-87
2023/03/27 07:07:40;;;;;;;5.65;0.82;;;5.20;99.90;;;;;;4763783;30;20383;-86
2023/03/27 07:10:07;;;;;;;5.28;0.55;;;5.70;99.90;;;;;;4775938;30;20043;-84
2023/03/27 07:12:33;;;;;;;5.20;0.57;;;5.20;99.90;;;;;;4763352;30;20047;-83
2023/03/27 07:14:59;;;;;;;3.03;0.40;;;6.10;99.90;;;;;;4780623;30;20409;-85
2023/03/27 07:17:25;;;;;;;5.90;1.95;;;5.60;99.90;;;;;;4771898;30;20490;-84
2023/03/27 07:19:51;;;;;;;2.42;0.43;;;4.70;99.90;;;;;;4767613;30;20095;-85
2023/03/27 07:22:16;;;;;;;5.65;0.60;;;6.00;99.90;;;;;;4771233;30;20075;-88
2023/03/27 07:24:42;;;;;;;8.15;1.48;;;5.30;99.90;;;;;;4770047;30;20051;-85
2023/03/27 07:27:08;;;;;;;6.57;0.50;;;5.10;99.90;;;;;;4770962;30;20542;-85
2023/03/27 07:29:35;;;;;;;4.38;0.50;;;5.40;99.90;;;;;;4770764;30;20098;-85
2023/03/27 07:32:02;;;;;;;3.03;0.75;;;5.60;99.90;;;;;;4771086;30;20055;-86
2023/03/27 07:34:28;;;;;;;6.70;0.70;;;5.10;99.90;;;;;;4771353;30;20043;-82
2023/03/27 07:36:56;;;;;;;2.53;0.43;;;4.80;99.90;;;;;;4761450;30;20104;-84
2023/03/27 07:39:22;;;;;;;2.47;0.40;;;5.70;99.90;;;;;;4770614;30;20460;-83
2023/03/27 07:41:48;;;;;;;8.00;0.63;;;4.90;99.90;;;;;;4778027;30;20052;-87
2023/03/27 07:44:13;;;;;;;2.30;0.60;;;4.90;99.90;;;;;;4774578;30;20100;-82
2023/03/27 07:46:40;;;;;;;9.77;0.85;;;5.50;99.90;;;;;;4760641;30;20391;-83
2023/03/27 07:49:07;;;;;;;1.02;0.30;;;4.90;99.90;;;;;;4766151;30;20052;-85
2023/03/27 07:51:33;;;;;;;1.35;0.38;;;5.70;99.90;;;;;;4770249;30;20044;-90
2023/03/27 07:54:03;;;;;;;4.28;0.30;;;5.00;99.90;;;;;;4769968;30;20124;-87
2023/03/27 07:56:31;;;;;;;4.05;0.55;;;4.90;99.90;;;;;;4764534;30;20058;-84
2023/03/27 07:58:57;;;;;;;3.15;0.30;;;5.90;99.90;;;;;;4757859;30;20414;-89
2023/03/27 08:01:24;;;;;;;2.75;0.40;;;5.00;99.90;;;;;;4771121;30;20570;-88
2023/03/27 08:03:50;;;;;;;2.10;0.40;;;6.00;99.90;;;;;;4771171;30;20100;-84
2023/03/27 08:06:16;;;;;;;1.63;0.30;;;5.50;99.90;;;;;;4769304;30;20051;-84
2023/03/27 08:08:42;;;;;;;2.17;0.30;;;6.70;99.90;;;;;;4769746;30;20076;-84
2023/03/27 08:11:08;;;;;;;1.50;0.30;;;6.30;99.90;;;;;;4769013;30;20055;-85
2023/03/27 08:13:34;;;;;;;0.77;0.35;;;5.30;99.90;;;;;;4779651;30;20520;-89
2023/03/27 08:16:05;;;;;;;2.83;0.28;;;6.10;99.90;;;;;;4780809;30;20044;-83
2023/03/27 08:18:31;;;;;;;3.83;0.40;;;5.50;99.90;;;;;;4771219;30;20051;-83
2023/03/27 08:20:58;;;;;;;1.80;0.70;;;6.30;99.90;;;;;;4769777;30;20116;-89
2023/03/27 08:23:26;;;;;;;2.47;0.30;;;5.90;99.90;;;;;;4758673;30;20082;-85
2023/03/27 08:25:59;;;;;;;1.75;0.45;;;6.50;99.90;;;;;;4746023;30;20141;-83
2023/03/27 08:28:26;;;;;;;2.40;0.40;;;6.60;99.90;;;;;;4761842;30;20043;-84
2023/03/27 08:30:52;;;;;;;3.53;0.77;;;6.70;99.90;;;;;;4762723;30;20117;-83
2023/03/27 08:33:18;;;;;;;3.92;0.50;;;6.70;99.90;;;;;;4763230;30;20052;-85
2023/03/27 08:35:47;;;;;;;5.38;0.88;;;7.50;99.90;;;;;;4769205;30;20063;-84
2023/03/27 08:38:13;;;;;;;5.68;0.60;;;7.10;99.90;;;;;;4771647;30;20525;-85
2023/03/27 08:40:46;;;;;;;3.13;0.50;;;7.30;99.90;;;;;;4769759;30;20051;-83
2023/03/27 08:43:17;;;;;;;6.38;0.70;;;7.70;99.90;;;;;;4769639;30;20104;-84
2023/03/27 08:45:50;;;;;;;4.78;0.70;;;6.40;99.90;;;;;;4759625;30;20489;-87
2023/03/27 08:48:26;;;;;;;7.45;0.70;;;6.30;99.90;;;;;;4767358;30;20043;-85
2023/03/27 08:51:45;;;;;;;2.05;0.30;;;6.30;99.90;;;;;;4770676;30;20059;-85
2023/03/27 08:54:24;;;;;;;2.45;0.30;;;6.50;99.90;;;;;;4687178;30;20487;-86
2023/03/27 08:56:51;;;;;;;4.80;0.30;;;6.40;99.90;;;;;;4672373;30;20066;-85
2023/03/27 08:59:20;;;;;;;3.17;0.35;;;7.60;99.90;;;;;;4686603;30;20152;-87
2023/03/27 09:01:56;;;;;;;2.97;0.45;;;7.60;99.90;;;;;;4686662;30;20058;-86
2023/03/27 09:04:43;;;;;;;9.13;0.63;;;6.60;99.90;;;;;;4667623;30;20050;-82
2023/03/27 09:07:18;;;;;;;1.55;0.38;;;6.70;99.90;;;;;;4665720;30;20168;-88
2023/03/27 09:09:54;;;;;;;3.83;0.40;;;6.90;99.90;;;;;;4672515;30;20460;-87
2023/03/27 09:12:56;;;;;;;3.70;0.40;;;7.00;99.90;;;;;;4690821;30;20046;-89
2023/03/27 09:15:28;;;;;;;2.75;0.40;;;7.20;99.90;;;;;;4664628;30;20050;-87
2023/03/27 09:18:26;;;;;;;2.05;0.30;;;7.20;99.90;;;;;;4675594;30;20648;-88
2023/03/27 09:20:55;;;;;;;1.23;0.43;;;7.20;99.90;;;;;;4688240;30;20053;-87
2023/03/27 09:23:47;;;;;;;1.80;0.40;;;7.70;99.90;;;;;;4675377;30;20049;-86
2023/03/27 09:26:21;;;;;;;6.70;0.50;;;7.40;99.90;;;;;;4694724;30;20486;-87
2023/03/27 09:28:51;;;;;;;1.27;0.20;;;7.90;99.90;;;;;;4758164;30;20175;-87
2023/03/27 09:31:27;;;;;;;2.63;0.32;;;8.40;99.90;;;;;;4765575;30;20624;-84
2023/03/27 09:33:55;;;;;;;4.38;0.40;;;8.00;99.90;;;;;;4770880;30;20067;-88
2023/03/27 09:36:23;;;;;;;2.92;0.30;;;7.90;99.90;;;;;;4756900;30;20067;-89
2023/03/27 09:38:52;;;;;;;2.88;0.40;;;7.70;99.90;;;;;;4756262;30;20051;-86
2023/03/27 09:41:32;;;;;;;3.45;0.30;;;7.70;99.90;;;;;;4779248;30;20058;-88
2023/03/27 09:44:06;;;;;;;3.55;0.20;;;8.00;99.90;;;;;;4773153;30;20058;-85
2023/03/27 09:46:36;;;;;;;6.32;0.50;;;7.60;99.90;;;;;;4767955;30;20092;-84
2023/03/27 09:49:06;;;;;;;8.02;0.40;;;8.60;99.90;;;;;;4773505;30;20047;-84
2023/03/27 09:51:38;;;;;;;4.43;0.45;;;8.70;99.90;;;;;;4772816;30;20048;-86
2023/03/27 09:54:05;;;;;;;3.97;0.50;;;7.90;99.90;;;;;;4778756;30;20631;-87
2023/03/27 09:56:39;;;;;;;1.83;0.30;;;7.90;99.90;;;;;;4767218;30;20043;-86
2023/03/27 09:59:26;;;;;;;1.45;0.43;;;8.20;99.90;;;;;;4774184;30;20142;-86
2023/03/27 10:01:57;;;;;;;6.18;0.40;;;7.70;99.90;;;;;;4763690;30;20059;-86
2023/03/27 10:04:24;;;;;;;5.15;0.63;;;8.70;99.90;;;;;;4776184;30;20570;-84
2023/03/27 10:06:58;;;;;;;4.70;0.22;;;8.00;99.90;;;;;;4768320;30;20055;-87
2023/03/27 10:09:35;;;;;;;1.58;0.30;;;8.20;99.90;;;;;;4774863;30;20043;-86
2023/03/27 10:12:07;;;;;;;2.65;0.43;;;7.90;99.90;;;;;;4764844;30;20070;-85
2023/03/27 10:14:39;;;;;;;3.42;0.30;;;8.00;99.90;;;;;;4765403;30;20043;-85
2023/03/27 10:17:05;;;;;;;1.45;0.22;;;8.10;99.90;;;;;;4762691;30;20059;-85
2023/03/27 10:19:38;;;;;;;3.75;0.40;;;8.60;99.90;;;;;;4764853;30;20054;-83
2023/03/27 10:22:26;;;;;;;3.63;0.43;;;8.40;99.90;;;;;;4772013;30;20092;-83
2023/03/27 10:24:52;;;;;;;1.38;0.30;;;8.50;99.90;;;;;;4763599;30;20058;-84
2023/03/27 10:27:23;;;;;;;2.67;0.30;;;8.50;98.80;;;;;;4772551;30;20044;-84
2023/03/27 10:29:49;;;;;;;3.90;0.30;;;8.80;98.70;;;;;;4751785;30;20146;-84
2023/03/27 10:32:14;;;;;;;4.57;0.40;;;8.60;99.80;;;;;;4773450;30;20462;-85
2023/03/27 10:34:56;;;;;;;4.60;0.40;;;8.80;99.90;;;;;;4771606;30;20414;-84
2023/03/27 10:37:35;;;;;;;2.25;0.30;;;8.60;99.90;;;;;;4771652;30;20044;-84
2023/03/27 10:40:02;;;;;;;4.07;0.80;;;8.20;99.90;;;;;;4751313;30;20059;-85
2023/03/27 10:42:31;;;;;;;6.15;0.60;;;8.50;99.90;;;;;;4778374;30;20047;-85
2023/03/27 10:44:57;;;;;;;3.22;0.40;;;7.80;99.90;;;;;;4771178;30;20051;-84
2023/03/27 10:47:30;;;;;;;0.60;0.30;;;7.90;99.90;;;;;;4771964;30;20052;-86
2023/03/27 10:50:08;;;;;;;1.58;0.40;;;8.10;99.90;;;;;;4771505;30;20055;-85
2023/03/27 10:53:12;;;;;;;2.97;0.30;;;7.80;99.90;;;;;;4771297;30;21101;-86
2023/03/27 10:56:04;;;;;;;7.85;0.45;;;8.20;99.90;;;;;;4764494;30;20059;-85
2023/03/27 10:58:42;;;;;;;1.15;0.28;;;8.30;99.90;;;;;;4769574;30;20143;-85
2023/03/27 11:01:30;;;;;;;1.33;0.30;;;8.60;99.50;;;;;;4770814;30;20055;-83
2023/03/27 11:04:02;;;;;;;2.85;0.40;;;8.40;99.80;;;;;;4765428;30;20055;-86
2023/03/27 11:06:34;;;;;;;3.75;0.50;;;8.20;99.70;;;;;;4770714;30;20047;-85
2023/03/27 11:09:08;;;;;;;3.83;0.50;;;8.80;99.90;;;;;;4754969;30;20135;-85
2023/03/27 11:11:52;;;;;;;4.13;0.63;;;8.00;99.90;;;;;;4770416;30;20568;-84
2023/03/27 11:14:21;;;;;;;6.68;0.55;;;8.10;99.90;;;;;;4771475;30;20054;-87
2023/03/27 11:16:55;;;;;;;2.88;0.50;;;8.50;99.90;;;;;;4773173;30;20513;-87
2023/03/27 11:19:28;;;;;;;5.95;0.57;;;7.60;99.90;;;;;;4771320;30;20510;-84
2023/03/27 11:22:01;;;;;;;3.70;0.63;;;7.40;99.90;;;;;;4757507;30;20121;-87
2023/03/27 11:24:37;;;;;;;4.80;0.50;;;7.30;99.90;;;;;;4772108;30;20052;-84
2023/03/27 11:27:11;;;;;;;4.95;0.43;;;7.30;99.90;;;;;;4756135;30;20060;-87
2023/03/27 11:30:09;;;;;;;3.58;0.80;;;8.10;99.90;;;;;;4771512;30;20123;-86
2023/03/27 11:32:58;;;;;;;2.38;0.20;;;7.60;99.90;;;;;;4766552;30;20059;-85
2023/03/27 11:35:31;;;;;;;4.63;0.57;;;8.00;99.90;;;;;;4766345;30;20064;-87
2023/03/27 11:38:06;;;;;;;4.63;0.40;;;8.10;99.90;;;;;;4778404;30;20109;-86
2023/03/27 11:40:43;;;;;;;2.35;0.55;;;8.80;99.90;;;;;;4755522;29;20070;-87
2023/03/27 11:43:14;;;;;;;4.50;0.38;;;8.30;99.90;;;;;;4765971;30;20107;-87
2023/03/27 11:46:01;;;;;;;5.57;0.60;;;7.40;99.90;;;;;;4742021;30;20093;-86
2023/03/27 11:48:45;;;;;;;2.03;0.30;;;8.30;99.90;;;;;;4768198;30;20055;-84
2023/03/27 11:51:30;;;;;;;3.03;0.40;;;8.50;99.80;;;;;;4778505;30;20062;-88
2023/03/27 11:54:00;;;;;;;3.42;0.40;;;8.70;99.70;;;;;;4772102;30;20094;-88
2023/03/27 11:56:55;;;;;;;2.85;0.30;;;8.70;99.90;;;;;;4774020;30;20559;-86
2023/03/27 11:59:39;;;;;;;2.53;0.40;;;8.70;99.60;;;;;;4756330;30;20466;-85
2023/03/27 12:02:07;;;;;;;5.13;0.47;;;9.00;97.50;;;;;;4773367;30;20060;-85
2023/03/27 12:04:33;;;;;;;5.00;0.47;;;8.30;99.00;;;;;;4764311;30;20125;-86
2023/03/27 12:07:14;;;;;;;2.83;0.70;;;9.60;97.60;;;;;;4771960;30;20089;-85
2023/03/27 12:10:10;;;;;;;3.50;0.60;;;9.20;97.70;;;;;;4758700;30;20047;-85
2023/03/27 12:12:57;;;;;;;5.43;0.80;;;9.10;98.70;;;;;;4780505;30;20044;-85
2023/03/27 12:15:40;;;;;;;;;;;8.90;99.90;;;;;;4770132;30;20048;-88
2023/03/27 12:18:14;;;;;;;2.63;0.40;;;8.70;99.90;;;;;;4769681;30;20028;-89
2023/03/27 12:21:22;;;;;;;3.63;0.68;;;8.60;99.90;;;;;;4777072;30;20414;-86
2023/03/27 12:24:16;;;;;;;3.60;0.40;;;8.60;99.90;;;;;;4700652;30;20203;-85
2023/03/27 12:27:09;;;;;;;5.05;0.40;;;8.60;99.90;;;;;;4727360;30;20392;-87
2023/03/27 12:29:43;;;;;;;1.83;0.40;;;8.80;98.90;;;;;;4715846;30;20455;-86
2023/03/27 12:32:32;;;;;;;3.10;0.40;;;9.10;99.80;;;;;;4714298;30;20053;-89
2023/03/27 12:35:02;;;;;;;6.28;0.40;;;9.30;98.00;;;;;;4726445;30;20503;-89
2023/03/27 12:37:41;;;;;;;6.93;0.50;;;9.10;98.80;;;;;;4702611;30;20520;-84
2023/03/27 12:40:27;;;;;;;4.45;0.73;;;9.00;98.90;;;;;;4721599;30;20128;-85
2023/03/27 12:43:06;;;;;;;1.85;0.30;;;9.00;99.40;;;;;;4694565;30;20048;-90
2023/03/27 12:45:31;;;;;;;1.45;0.28;;;9.10;99.60;;;;;;4707283;30;20047;-89
2023/03/27 12:48:09;;;;;;;5.88;0.43;;;9.40;99.50;;;;;;4714120;30;20497;-89
2023/03/27 12:50:50;;;;;;;1.92;0.50;;;9.50;98.70;;;;;;4708095;30;20057;-85
2023/03/27 12:53:22;;;;;;;3.20;0.30;;;9.30;98.60;;;;;;4708569;30;20109;-93
2023/03/27 12:55:47;;;;;;;3.75;0.70;;;9.30;98.70;;;;;;4725500;30;20089;-87
2023/03/27 12:58:34;;;;;;;6.22;0.60;;;9.40;98.90;;;;;;4720153;30;20175;-90
2023/03/27 13:01:01;;;;;;;6.70;0.60;;;9.20;99.20;;;;;;4735751;30;20514;-88
2023/03/27 13:04:14;;;;;;;2.35;0.50;;;9.20;99.20;;;;;;4740341;30;20087;-89
2023/03/27 13:07:01;;;;;;;4.35;0.35;;;9.10;99.20;;;;;;4737947;30;20118;-89
2023/03/27 13:09:58;;;;;;;4.85;0.50;;;8.70;99.90;;;;;;4744871;30;20055;-90
2023/03/27 13:12:52;;;;;;;3.45;0.50;;;8.80;99.90;;;;;;4746723;30;20055;-91
2023/03/27 13:15:35;;;;;;;6.13;0.70;;;8.70;99.90;;;;;;4733356;30;20498;-88
2023/03/27 13:18:26;;;;;;;5.18;0.50;;;8.90;99.90;;;;;;4754326;30;20055;-89
2023/03/27 13:21:32;;;;;;;2.97;0.50;;;8.90;99.90;;;;;;4763519;30;20502;-90
2023/03/27 13:24:26;;;;;;;4.57;0.60;;;8.70;99.90;;;;;;4762501;30;20052;-87
2023/03/27 13:26:55;;;;;;;4.50;0.50;;;8.40;99.90;;;;;;4751668;30;20508;-86